sensor_id;sensor_type;location;lat;lon;timestamp;temperature;humidity
66337;SHT30;53139;45.576;5.304;2023-07-22T00:01:05;17.02;82.05
66337;SHT30;53139;45.576;5.304;2023-07-22T00:05:26;17.18;79.90
66337;SHT30;53139;45.576;5.304;2023-07-22T00:09:35;17.20;82.89
66337;SHT30;53139;45.576;5.304;2023-07-22T00:13:58;17.01;80.28
66337;SHT30;53139;45.576;5.304;2023-07-22T00:18:12;17.11;81.46
66337;SHT30;53139;45.576;5.304;2023-07-22T00:22:14;16.74;80.16
66337;SHT30;53139;45.576;5.304;2023-07-22T00:26:23;16.77;81.02
66337;SHT30;53139;45.576;5.304;2023-07-22T00:30:31;16.57;85.11
66337;SHT30;53139;45.576;5.304;2023-07-22T00:34:35;16.54;81.17
66337;SHT30;53139;45.576;5.304;2023-07-22T00:38:43;16.57;84.40
66337;SHT30;53139;45.576;5.304;2023-07-22T00:42:57;16.77;80.43
66337;SHT30;53139;45.576;5.304;2023-07-22T00:47:21;16.63;80.83
66337;SHT30;53139;45.576;5.304;2023-07-22T00:51:31;16.42;82.47
66337;SHT30;53139;45.576;5.304;2023-07-22T00:59:45;16.13;84.05
66337;SHT30;53139;45.576;5.304;2023-07-22T01:03:42;15.94;80.25
66337;SHT30;53139;45.576;5.304;2023-07-22T01:07:49;15.84;79.75
66337;SHT30;53139;45.576;5.304;2023-07-22T01:11:55;15.81;82.39
66337;SHT30;53139;45.576;5.304;2023-07-22T01:20:05;15.97;79.78
66337;SHT30;53139;45.576;5.304;2023-07-22T01:24:22;15.97;82.35
66337;SHT30;53139;45.576;5.304;2023-07-22T01:28:34;15.80;80.41
66337;SHT30;53139;45.576;5.304;2023-07-22T01:32:25;15.77;85.88
66337;SHT30;53139;45.576;5.304;2023-07-22T01:36:17;15.84;80.92
66337;SHT30;53139;45.576;5.304;2023-07-22T01:40:21;15.94;79.85
66337;SHT30;53139;45.576;5.304;2023-07-22T01:44:26;15.71;81.68
66337;SHT30;53139;45.576;5.304;2023-07-22T01:48:44;15.84;81.92
66337;SHT30;53139;45.576;5.304;2023-07-22T01:53:06;15.57;85.46
66337;SHT30;53139;45.576;5.304;2023-07-22T01:57:26;15.85;84.62
66337;SHT30;53139;45.576;5.304;2023-07-22T02:01:31;15.65;85.63
66337;SHT30;53139;45.576;5.304;2023-07-22T02:05:35;15.73;81.79
66337;SHT30;53139;45.576;5.304;2023-07-22T02:09:47;15.99;83.04
66337;SHT30;53139;45.576;5.304;2023-07-22T02:13:55;16.08;81.97
66337;SHT30;53139;45.576;5.304;2023-07-22T02:18:25;15.82;80.97
66337;SHT30;53139;45.576;5.304;2023-07-22T02:22:31;15.60;83.54
66337;SHT30;53139;45.576;5.304;2023-07-22T02:26:56;15.64;83.04
66337;SHT30;53139;45.576;5.304;2023-07-22T02:35:16;15.42;81.38
66337;SHT30;53139;45.576;5.304;2023-07-22T02:39:23;15.47;85.84
66337;SHT30;53139;45.576;5.304;2023-07-22T02:43:53;15.55;81.77
66337;SHT30;53139;45.576;5.304;2023-07-22T02:48:34;15.60;84.28
66337;SHT30;53139;45.576;5.304;2023-07-22T02:57:01;16.09;81.02
66337;SHT30;53139;45.576;5.304;2023-07-22T03:01:18;15.80;81.38
66337;SHT30;53139;45.576;5.304;2023-07-22T03:17:45;15.49;85.82
66337;SHT30;53139;45.576;5.304;2023-07-22T03:22:13;15.43;84.91
66337;SHT30;53139;45.576;5.304;2023-07-22T03:26:26;15.23;85.85
66337;SHT30;53139;45.576;5.304;2023-07-22T03:30:35;15.27;84.06
66337;SHT30;53139;45.576;5.304;2023-07-22T03:35:07;15.12;84.58
66337;SHT30;53139;45.576;5.304;2023-07-22T03:39:22;14.75;89.02
66337;SHT30;53139;45.576;5.304;2023-07-22T03:43:48;14.81;86.19
66337;SHT30;53139;45.576;5.304;2023-07-22T03:52:26;15.05;88.24
66337;SHT30;53139;45.576;5.304;2023-07-22T04:00:53;14.88;87.39
66337;SHT30;53139;45.576;5.304;2023-07-22T04:09:01;14.91;90.22
66337;SHT30;53139;45.576;5.304;2023-07-22T04:13:08;15.03;86.12
66337;SHT30;53139;45.576;5.304;2023-07-22T04:17:17;15.20;86.27
66337;SHT30;53139;45.576;5.304;2023-07-22T04:21:24;14.96;85.00
66337;SHT30;53139;45.576;5.304;2023-07-22T04:25:22;15.27;85.44
66337;SHT30;53139;45.576;5.304;2023-07-22T04:29:32;15.09;86.09
66337;SHT30;53139;45.576;5.304;2023-07-22T04:33:39;15.57;83.50
66337;SHT30;53139;45.576;5.304;2023-07-22T04:37:40;15.30;84.38
66337;SHT30;53139;45.576;5.304;2023-07-22T04:41:58;15.46;84.52
66337;SHT30;53139;45.576;5.304;2023-07-22T04:45:56;15.60;83.34
66337;SHT30;53139;45.576;5.304;2023-07-22T04:50:01;15.61;83.61
66337;SHT30;53139;45.576;5.304;2023-07-22T04:57:57;15.54;83.62
66337;SHT30;53139;45.576;5.304;2023-07-22T05:06:19;15.64;85.12
66337;SHT30;53139;45.576;5.304;2023-07-22T05:10:20;15.49;83.11
66337;SHT30;53139;45.576;5.304;2023-07-22T05:14:09;15.44;84.15
66337;SHT30;53139;45.576;5.304;2023-07-22T05:34:35;16.73;81.02
66337;SHT30;53139;45.576;5.304;2023-07-22T05:38:46;16.92;80.70
66337;SHT30;53139;45.576;5.304;2023-07-22T05:51:38;16.56;82.28
66337;SHT30;53139;45.576;5.304;2023-07-22T06:27:38;17.35;79.26
66337;SHT30;53139;45.576;5.304;2023-07-22T06:31:06;17.51;79.42
66337;SHT30;53139;45.576;5.304;2023-07-22T06:34:44;17.73;78.54
66337;SHT30;53139;45.576;5.304;2023-07-22T06:38:00;17.80;76.83
66337;SHT30;53139;45.576;5.304;2023-07-22T06:41:37;17.88;77.72
66337;SHT30;53139;45.576;5.304;2023-07-22T06:44:52;17.97;76.64
66337;SHT30;53139;45.576;5.304;2023-07-22T06:48:00;18.15;76.49
66337;SHT30;53139;45.576;5.304;2023-07-22T06:51:01;18.22;75.72
66337;SHT30;53139;45.576;5.304;2023-07-22T06:54:10;18.30;74.92
66337;SHT30;53139;45.576;5.304;2023-07-22T06:57:19;18.54;76.12
66337;SHT30;53139;45.576;5.304;2023-07-22T07:00:35;18.73;76.24
66337;SHT30;53139;45.576;5.304;2023-07-22T07:03:43;18.81;75.07
66337;SHT30;53139;45.576;5.304;2023-07-22T07:07:01;19.04;75.18
66337;SHT30;53139;45.576;5.304;2023-07-22T07:10:38;19.15;74.37
66337;SHT30;53139;45.576;5.304;2023-07-22T07:14:17;19.28;73.89
66337;SHT30;53139;45.576;5.304;2023-07-22T07:17:50;19.50;72.89
66337;SHT30;53139;45.576;5.304;2023-07-22T07:21:33;19.66;72.33
66337;SHT30;53139;45.576;5.304;2023-07-22T07:25:08;19.73;72.84
66337;SHT30;53139;45.576;5.304;2023-07-22T07:28:26;20.00;71.98
66337;SHT30;53139;45.576;5.304;2023-07-22T07:31:26;20.05;72.25
66337;SHT30;53139;45.576;5.304;2023-07-22T07:34:27;20.14;70.91
66337;SHT30;53139;45.576;5.304;2023-07-22T07:37:27;20.47;70.64
66337;SHT30;53139;45.576;5.304;2023-07-22T07:40:28;20.50;70.02
66337;SHT30;53139;45.576;5.304;2023-07-22T07:43:29;20.63;69.99
66337;SHT30;53139;45.576;5.304;2023-07-22T07:46:29;20.95;70.02
66337;SHT30;53139;45.576;5.304;2023-07-22T07:49:30;20.87;69.17
66337;SHT30;53139;45.576;5.304;2023-07-22T07:52:30;21.02;67.59
66337;SHT30;53139;45.576;5.304;2023-07-22T07:55:30;21.15;68.75
66337;SHT30;53139;45.576;5.304;2023-07-22T07:58:31;21.29;68.25
66337;SHT30;53139;45.576;5.304;2023-07-22T08:01:31;21.50;67.17
66337;SHT30;53139;45.576;5.304;2023-07-22T08:04:31;21.46;65.98
66337;SHT30;53139;45.576;5.304;2023-07-22T08:07:32;21.74;68.26
66337;SHT30;53139;45.576;5.304;2023-07-22T08:10:32;21.97;67.28
66337;SHT30;53139;45.576;5.304;2023-07-22T08:13:33;22.05;65.33
66337;SHT30;53139;45.576;5.304;2023-07-22T08:16:34;22.37;67.43
66337;SHT30;53139;45.576;5.304;2023-07-22T08:19:34;22.53;66.31
66337;SHT30;53139;45.576;5.304;2023-07-22T08:22:34;22.74;65.64
66337;SHT30;53139;45.576;5.304;2023-07-22T08:25:35;22.74;65.17
66337;SHT30;53139;45.576;5.304;2023-07-22T08:28:35;23.11;65.23
66337;SHT30;53139;45.576;5.304;2023-07-22T08:31:35;23.27;64.25
66337;SHT30;53139;45.576;5.304;2023-07-22T08:34:36;23.18;61.07
66337;SHT30;53139;45.576;5.304;2023-07-22T08:37:36;23.49;62.45
66337;SHT30;53139;45.576;5.304;2023-07-22T08:40:38;24.14;59.44
66337;SHT30;53139;45.576;5.304;2023-07-22T08:43:40;24.18;57.18
66337;SHT30;53139;45.576;5.304;2023-07-22T08:46:42;24.09;57.63
66337;SHT30;53139;45.576;5.304;2023-07-22T08:49:46;24.18;56.10
66337;SHT30;53139;45.576;5.304;2023-07-22T08:52:50;26.52;52.67
66337;SHT30;53139;45.576;5.304;2023-07-22T08:55:51;28.87;49.36
66337;SHT30;53139;45.576;5.304;2023-07-22T08:58:54;28.37;45.82
66337;SHT30;53139;45.576;5.304;2023-07-22T09:01:55;31.11;42.94
66337;SHT30;53139;45.576;5.304;2023-07-22T09:04:55;32.21;40.84
66337;SHT30;53139;45.576;5.304;2023-07-22T09:07:56;33.27;38.87
66337;SHT30;53139;45.576;5.304;2023-07-22T09:10:57;33.32;38.10
66337;SHT30;53139;45.576;5.304;2023-07-22T09:13:58;34.25;38.36
66337;SHT30;53139;45.576;5.304;2023-07-22T09:16:59;35.23;37.63
66337;SHT30;53139;45.576;5.304;2023-07-22T09:19:59;34.95;36.79
66337;SHT30;53139;45.576;5.304;2023-07-22T09:23:00;35.85;36.73
66337;SHT30;53139;45.576;5.304;2023-07-22T09:26:15;34.25;36.79
66337;SHT30;53139;45.576;5.304;2023-07-22T09:29:16;33.15;36.51
66337;SHT30;53139;45.576;5.304;2023-07-22T09:32:34;33.28;39.25
66337;SHT30;53139;45.576;5.304;2023-07-22T09:35:46;32.46;33.98
66337;SHT30;53139;45.576;5.304;2023-07-22T09:39:00;35.16;35.51
66337;SHT30;53139;45.576;5.304;2023-07-22T09:42:06;35.30;32.15
66337;SHT30;53139;45.576;5.304;2023-07-22T09:45:09;36.34;30.95
66337;SHT30;53139;45.576;5.304;2023-07-22T09:48:09;36.23;34.71
66337;SHT30;53139;45.576;5.304;2023-07-22T09:51:15;36.94;32.55
66337;SHT30;53139;45.576;5.304;2023-07-22T09:54:16;37.33;33.87
66337;SHT30;53139;45.576;5.304;2023-07-22T09:57:18;37.21;34.35
66337;SHT30;53139;45.576;5.304;2023-07-22T10:00:18;36.27;35.33
66337;SHT30;53139;45.576;5.304;2023-07-22T10:03:23;34.29;36.99
66337;SHT30;53139;45.576;5.304;2023-07-22T10:06:29;36.32;35.06
66337;SHT30;53139;45.576;5.304;2023-07-22T10:09:31;36.67;34.92
66337;SHT30;53139;45.576;5.304;2023-07-22T10:12:31;35.08;28.85
66337;SHT30;53139;45.576;5.304;2023-07-22T10:15:33;37.87;30.85
66337;SHT30;53139;45.576;5.304;2023-07-22T10:18:35;39.37;31.02
66337;SHT30;53139;45.576;5.304;2023-07-22T10:21:38;37.88;32.29
66337;SHT30;53139;45.576;5.304;2023-07-22T10:24:40;39.22;27.53
66337;SHT30;53139;45.576;5.304;2023-07-22T10:27:41;37.40;30.18
66337;SHT30;53139;45.576;5.304;2023-07-22T10:30:42;37.19;29.26
66337;SHT30;53139;45.576;5.304;2023-07-22T10:33:45;36.82;29.54
66337;SHT30;53139;45.576;5.304;2023-07-22T10:36:47;38.22;29.71
66337;SHT30;53139;45.576;5.304;2023-07-22T10:39:47;40.86;26.04
66337;SHT30;53139;45.576;5.304;2023-07-22T10:42:57;41.38;26.31
66337;SHT30;53139;45.576;5.304;2023-07-22T10:45:59;41.17;
66337;SHT30;53139;45.576;5.304;2023-07-22T10:49:14;41.97;24.22
66337;SHT30;53139;45.576;5.304;2023-07-22T10:52:37;40.03;29.96
66337;SHT30;53139;45.576;5.304;2023-07-22T10:59:04;40.04;30.76
66337;SHT30;53139;45.576;5.304;2023-07-22T11:02:07;41.04;27.58
66337;SHT30;53139;45.576;5.304;2023-07-22T11:05:11;40.30;27.92
66337;SHT30;53139;45.576;5.304;2023-07-22T11:08:11;41.39;26.08
66337;SHT30;53139;45.576;5.304;2023-07-22T11:11:12;42.78;26.78
66337;SHT30;53139;45.576;5.304;2023-07-22T11:14:22;40.52;26.33
66337;SHT30;53139;45.576;5.304;2023-07-22T11:17:31;41.86;27.12
66337;SHT30;53139;45.576;5.304;2023-07-22T11:20:31;41.49;27.08
66337;SHT30;53139;45.576;5.304;2023-07-22T11:23:33;39.50;28.26
66337;SHT30;53139;45.576;5.304;2023-07-22T11:26:35;43.38;26.50
66337;SHT30;53139;45.576;5.304;2023-07-22T11:29:36;42.38;26.60
66337;SHT30;53139;45.576;5.304;2023-07-22T11:32:42;42.76;26.00
66337;SHT30;53139;45.576;5.304;2023-07-22T11:35:42;41.00;27.69
66337;SHT30;53139;45.576;5.304;2023-07-22T11:38:43;43.06;27.40
66337;SHT30;53139;45.576;5.304;2023-07-22T11:41:44;44.52;26.87
66337;SHT30;53139;45.576;5.304;2023-07-22T11:44:45;43.66;26.22
66337;SHT30;53139;45.576;5.304;2023-07-22T11:47:45;44.11;27.26
66337;SHT30;53139;45.576;5.304;2023-07-22T11:50:45;41.11;23.49
66337;SHT30;53139;45.576;5.304;2023-07-22T11:53:47;40.82;25.65
66337;SHT30;53139;45.576;5.304;2023-07-22T11:56:49;44.08;25.36
66337;SHT30;53139;45.576;5.304;2023-07-22T11:59:53;40.56;24.85
66337;SHT30;53139;45.576;5.304;2023-07-22T12:02:54;42.24;28.18
66337;SHT30;53139;45.576;5.304;2023-07-22T12:06:01;43.33;23.72
66337;SHT30;53139;45.576;5.304;2023-07-22T12:09:02;41.83;25.41
66337;SHT30;53139;45.576;5.304;2023-07-22T12:12:02;41.26;26.64
66337;SHT30;53139;45.576;5.304;2023-07-22T12:15:19;45.04;25.98
66337;SHT30;53139;45.576;5.304;2023-07-22T12:18:20;44.97;23.61
66337;SHT30;53139;45.576;5.304;2023-07-22T12:21:21;41.14;24.62
66337;SHT30;53139;45.576;5.304;2023-07-22T12:24:21;40.10;24.48
66337;SHT30;53139;45.576;5.304;2023-07-22T12:27:22;41.17;24.32
66337;SHT30;53139;45.576;5.304;2023-07-22T12:30:22;39.45;27.50
66337;SHT30;53139;45.576;5.304;2023-07-22T12:33:24;43.21;22.50
66337;SHT30;53139;45.576;5.304;2023-07-22T12:36:25;44.77;23.20
66337;SHT30;53139;45.576;5.304;2023-07-22T12:39:25;41.94;24.64
66337;SHT30;53139;45.576;5.304;2023-07-22T12:42:26;43.89;24.67
66337;SHT30;53139;45.576;5.304;2023-07-22T12:45:26;44.23;22.21
66337;SHT30;53139;45.576;5.304;2023-07-22T12:48:26;45.09;25.30
66337;SHT30;53139;45.576;5.304;2023-07-22T12:51:27;46.86;22.16
66337;SHT30;53139;45.576;5.304;2023-07-22T12:54:27;45.08;21.51
66337;SHT30;53139;45.576;5.304;2023-07-22T12:57:28;44.05;22.09
66337;SHT30;53139;45.576;5.304;2023-07-22T13:00:28;46.42;24.26
66337;SHT30;53139;45.576;5.304;2023-07-22T13:03:28;43.13;22.60
66337;SHT30;53139;45.576;5.304;2023-07-22T13:06:29;44.56;21.78
66337;SHT30;53139;45.576;5.304;2023-07-22T13:09:29;45.59;23.35
66337;SHT30;53139;45.576;5.304;2023-07-22T13:12:29;43.34;21.84
66337;SHT30;53139;45.576;5.304;2023-07-22T13:15:30;43.06;22.05
66337;SHT30;53139;45.576;5.304;2023-07-22T13:18:30;44.03;23.70
66337;SHT30;53139;45.576;5.304;2023-07-22T13:21:31;44.43;21.42
66337;SHT30;53139;45.576;5.304;2023-07-22T13:24:31;43.12;22.19
66337;SHT30;53139;45.576;5.304;2023-07-22T13:27:32;44.25;20.37
66337;SHT30;53139;45.576;5.304;2023-07-22T13:30:32;44.39;21.33
66337;SHT30;53139;45.576;5.304;2023-07-22T13:33:33;46.23;21.58
66337;SHT30;53139;45.576;5.304;2023-07-22T13:36:33;44.40;20.71
66337;SHT30;53139;45.576;5.304;2023-07-22T13:39:33;44.35;22.59
66337;SHT30;53139;45.576;5.304;2023-07-22T13:42:34;43.38;22.70
66337;SHT30;53139;45.576;5.304;2023-07-22T13:45:34;45.07;21.63
66337;SHT30;53139;45.576;5.304;2023-07-22T13:48:34;40.25;24.30
66337;SHT30;53139;45.576;5.304;2023-07-22T13:51:35;42.10;22.95
66337;SHT30;53139;45.576;5.304;2023-07-22T13:54:35;43.74;20.26
66337;SHT30;53139;45.576;5.304;2023-07-22T13:57:36;42.90;21.12
66337;SHT30;53139;45.576;5.304;2023-07-22T14:00:36;43.84;22.78
66337;SHT30;53139;45.576;5.304;2023-07-22T14:03:36;44.23;22.33
66337;SHT30;53139;45.576;5.304;2023-07-22T14:06:37;44.26;20.43
66337;SHT30;53139;45.576;5.304;2023-07-22T14:09:37;40.89;21.42
66337;SHT30;53139;45.576;5.304;2023-07-22T14:12:37;42.79;20.44
66337;SHT30;53139;45.576;5.304;2023-07-22T14:15:38;43.47;21.19
66337;SHT30;53139;45.576;5.304;2023-07-22T14:18:38;41.74;23.26
66337;SHT30;53139;45.576;5.304;2023-07-22T14:21:38;43.86;23.02
66337;SHT30;53139;45.576;5.304;2023-07-22T14:24:39;44.47;21.20
66337;SHT30;53139;45.576;5.304;2023-07-22T14:27:39;41.59;22.27
66337;SHT30;53139;45.576;5.304;2023-07-22T14:30:40;42.92;20.62
66337;SHT30;53139;45.576;5.304;2023-07-22T14:33:40;43.54;24.63
66337;SHT30;53139;45.576;5.304;2023-07-22T14:36:41;41.74;23.20
66337;SHT30;53139;45.576;5.304;2023-07-22T14:39:42;41.82;22.39
66337;SHT30;53139;45.576;5.304;2023-07-22T14:42:42;39.87;23.42
66337;SHT30;53139;45.576;5.304;2023-07-22T14:45:43;39.58;24.93
66337;SHT30;53139;45.576;5.304;2023-07-22T14:48:43;43.44;21.29
66337;SHT30;53139;45.576;5.304;2023-07-22T14:51:45;43.07;23.64
66337;SHT30;53139;45.576;5.304;2023-07-22T14:54:45;43.68;20.65
66337;SHT30;53139;45.576;5.304;2023-07-22T14:57:45;41.15;22.88
66337;SHT30;53139;45.576;5.304;2023-07-22T15:00:47;42.98;22.81
66337;SHT30;53139;45.576;5.304;2023-07-22T15:03:47;43.53;22.07
66337;SHT30;53139;45.576;5.304;2023-07-22T15:06:47;42.61;22.76
66337;SHT30;53139;45.576;5.304;2023-07-22T15:09:48;42.30;24.17
66337;SHT30;53139;45.576;5.304;2023-07-22T15:12:48;41.71;25.72
66337;SHT30;53139;45.576;5.304;2023-07-22T15:15:48;43.34;22.14
66337;SHT30;53139;45.576;5.304;2023-07-22T15:18:49;43.74;23.65
66337;SHT30;53139;45.576;5.304;2023-07-22T15:21:49;44.48;23.95
66337;SHT30;53139;45.576;5.304;2023-07-22T15:24:50;42.26;26.07
66337;SHT30;53139;45.576;5.304;2023-07-22T15:27:50;42.96;22.43
66337;SHT30;53139;45.576;5.304;2023-07-22T15:30:50;39.63;24.47
66337;SHT30;53139;45.576;5.304;2023-07-22T15:33:52;41.62;26.79
66337;SHT30;53139;45.576;5.304;2023-07-22T15:36:53;42.12;23.10
66337;SHT30;53139;45.576;5.304;2023-07-22T15:39:53;41.14;24.35
66337;SHT30;53139;45.576;5.304;2023-07-22T15:42:54;43.66;21.47
66337;SHT30;53139;45.576;5.304;2023-07-22T15:45:54;42.51;25.82
66337;SHT30;53139;45.576;5.304;2023-07-22T15:48:55;43.03;23.69
66337;SHT30;53139;45.576;5.304;2023-07-22T15:51:55;40.66;24.27
66337;SHT30;53139;45.576;5.304;2023-07-22T15:54:56;38.64;24.76
66337;SHT30;53139;45.576;5.304;2023-07-22T15:57:56;40.99;26.69
66337;SHT30;53139;45.576;5.304;2023-07-22T16:00:57;41.17;23.81
66337;SHT30;53139;45.576;5.304;2023-07-22T16:03:57;42.21;23.41
66337;SHT30;53139;45.576;5.304;2023-07-22T16:06:57;40.47;25.44
66337;SHT30;53139;45.576;5.304;2023-07-22T16:09:58;40.67;26.09
66337;SHT30;53139;45.576;5.304;2023-07-22T16:12:58;39.90;25.56
66337;SHT30;53139;45.576;5.304;2023-07-22T16:15:59;39.65;25.38
66337;SHT30;53139;45.576;5.304;2023-07-22T16:18:59;42.41;23.56
66337;SHT30;53139;45.576;5.304;2023-07-22T16:21:59;41.21;23.37
66337;SHT30;53139;45.576;5.304;2023-07-22T16:25:00;40.55;25.97
66337;SHT30;53139;45.576;5.304;2023-07-22T16:28:00;41.38;25.14
66337;SHT30;53139;45.576;5.304;2023-07-22T16:31:01;39.97;23.98
66337;SHT30;53139;45.576;5.304;2023-07-22T16:34:01;40.38;25.56
66337;SHT30;53139;45.576;5.304;2023-07-22T16:37:02;40.96;24.13
66337;SHT30;53139;45.576;5.304;2023-07-22T16:40:03;41.45;26.61
66337;SHT30;53139;45.576;5.304;2023-07-22T16:43:04;41.47;24.63
66337;SHT30;53139;45.576;5.304;2023-07-22T16:46:05;38.31;25.18
66337;SHT30;53139;45.576;5.304;2023-07-22T16:49:05;38.76;25.20
66337;SHT30;53139;45.576;5.304;2023-07-22T16:52:07;39.65;25.26
66337;SHT30;53139;45.576;5.304;2023-07-22T16:55:08;38.67;27.61
66337;SHT30;53139;45.576;5.304;2023-07-22T16:58:11;39.96;24.67
66337;SHT30;53139;45.576;5.304;2023-07-22T17:01:11;39.29;25.95
66337;SHT30;53139;45.576;5.304;2023-07-22T17:04:11;40.12;25.49
66337;SHT30;53139;45.576;5.304;2023-07-22T17:07:12;39.19;26.89
66337;SHT30;53139;45.576;5.304;2023-07-22T17:10:15;38.53;26.48
66337;SHT30;53139;45.576;5.304;2023-07-22T17:13:15;38.70;26.33
66337;SHT30;53139;45.576;5.304;2023-07-22T17:16:15;36.94;27.40
66337;SHT30;53139;45.576;5.304;2023-07-22T17:19:16;36.55;28.96
66337;SHT30;53139;45.576;5.304;2023-07-22T17:22:16;38.06;27.32
66337;SHT30;53139;45.576;5.304;2023-07-22T17:25:17;37.03;26.71
66337;SHT30;53139;45.576;5.304;2023-07-22T17:28:17;37.05;27.81
66337;SHT30;53139;45.576;5.304;2023-07-22T17:31:17;33.48;30.66
66337;SHT30;53139;45.576;5.304;2023-07-22T17:34:18;35.55;29.70
66337;SHT30;53139;45.576;5.304;2023-07-22T17:37:18;33.35;30.67
66337;SHT30;53139;45.576;5.304;2023-07-22T17:40:19;34.69;31.21
66337;SHT30;53139;45.576;5.304;2023-07-22T17:43:19;35.30;29.41
66337;SHT30;53139;45.576;5.304;2023-07-22T17:46:20;34.04;29.85
66337;SHT30;53139;45.576;5.304;2023-07-22T17:49:20;33.29;32.02
66337;SHT30;53139;45.576;5.304;2023-07-22T17:52:20;33.41;30.72
66337;SHT30;53139;45.576;5.304;2023-07-22T17:55:21;33.34;32.78
66337;SHT30;53139;45.576;5.304;2023-07-22T17:58:21;32.59;33.18
66337;SHT30;53139;45.576;5.304;2023-07-22T18:01:21;31.90;34.41
66337;SHT30;53139;45.576;5.304;2023-07-22T18:04:22;30.39;36.88
66337;SHT30;53139;45.576;5.304;2023-07-22T18:07:22;30.25;39.72
66337;SHT30;53139;45.576;5.304;2023-07-22T18:10:23;29.75;37.96
66337;SHT30;53139;45.576;5.304;2023-07-22T18:13:23;28.13;42.32
66337;SHT30;53139;45.576;5.304;2023-07-22T18:16:23;28.48;40.01
66337;SHT30;53139;45.576;5.304;2023-07-22T18:19:24;27.44;44.97
66337;SHT30;53139;45.576;5.304;2023-07-22T18:22:24;27.68;43.45
66337;SHT30;53139;45.576;5.304;2023-07-22T18:25:25;27.17;43.84
66337;SHT30;53139;45.576;5.304;2023-07-22T18:28:25;27.34;44.73
66337;SHT30;53139;45.576;5.304;2023-07-22T18:31:27;26.61;45.26
66337;SHT30;53139;45.576;5.304;2023-07-22T18:34:27;26.30;44.49
66337;SHT30;53139;45.576;5.304;2023-07-22T18:37:28;26.23;45.99
66337;SHT30;53139;45.576;5.304;2023-07-22T18:40:28;25.49;48.11
66337;SHT30;53139;45.576;5.304;2023-07-22T18:43:29;25.44;47.48
66337;SHT30;53139;45.576;5.304;2023-07-22T18:46:29;25.45;46.74
66337;SHT30;53139;45.576;5.304;2023-07-22T18:49:29;25.30;45.72
66337;SHT30;53139;45.576;5.304;2023-07-22T18:52:30;24.96;48.05
66337;SHT30;53139;45.576;5.304;2023-07-22T18:55:30;24.75;47.42
66337;SHT30;53139;45.576;5.304;2023-07-22T18:58:31;24.58;48.69
66337;SHT30;53139;45.576;5.304;2023-07-22T19:01:31;24.41;50.41
66337;SHT30;53139;45.576;5.304;2023-07-22T19:04:32;24.22;51.25
66337;SHT30;53139;45.576;5.304;2023-07-22T19:07:33;24.16;51.95
66337;SHT30;53139;45.576;5.304;2023-07-22T19:10:33;24.13;51.63
66337;SHT30;53139;45.576;5.304;2023-07-22T19:13:33;23.65;51.95
66337;SHT30;53139;45.576;5.304;2023-07-22T19:16:34;23.72;51.73
66337;SHT30;53139;45.576;5.304;2023-07-22T19:19:34;23.38;53.90
66337;SHT30;53139;45.576;5.304;2023-07-22T19:22:35;23.29;53.32
66337;SHT30;53139;45.576;5.304;2023-07-22T19:25:38;23.01;55.40
66337;SHT30;53139;45.576;5.304;2023-07-22T19:28:38;23.51;54.06
66337;SHT30;53139;45.576;5.304;2023-07-22T19:31:39;23.27;53.98
66337;SHT30;53139;45.576;5.304;2023-07-22T19:34:39;22.60;57.20
66337;SHT30;53139;45.576;5.304;2023-07-22T19:37:39;22.39;57.66
66337;SHT30;53139;45.576;5.304;2023-07-22T19:40:40;22.31;59.50
66337;SHT30;53139;45.576;5.304;2023-07-22T19:43:41;22.14;60.72
66337;SHT30;53139;45.576;5.304;2023-07-22T19:46:42;22.18;58.96
66337;SHT30;53139;45.576;5.304;2023-07-22T19:49:42;22.42;57.72
66337;SHT30;53139;45.576;5.304;2023-07-22T19:52:43;22.12;59.15
66337;SHT30;53139;45.576;5.304;2023-07-22T19:55:43;21.90;60.04
66337;SHT30;53139;45.576;5.304;2023-07-22T19:58:44;21.74;58.78
66337;SHT30;53139;45.576;5.304;2023-07-22T20:01:44;21.52;62.12
66337;SHT30;53139;45.576;5.304;2023-07-22T20:04:44;21.48;62.35
66337;SHT30;53139;45.576;5.304;2023-07-22T20:07:45;21.43;62.04
66337;SHT30;53139;45.576;5.304;2023-07-22T20:10:52;21.19;63.15
66337;SHT30;53139;45.576;5.304;2023-07-22T20:13:53;21.65;60.89
66337;SHT30;53139;45.576;5.304;2023-07-22T20:16:54;21.77;60.56
66337;SHT30;53139;45.576;5.304;2023-07-22T20:19:54;21.96;60.34
66337;SHT30;53139;45.576;5.304;2023-07-22T20:22:54;21.89;60.13
66337;SHT30;53139;45.576;5.304;2023-07-22T20:25:55;21.63;61.42
66337;SHT30;53139;45.576;5.304;2023-07-22T20:28:55;21.28;62.81
66337;SHT30;53139;45.576;5.304;2023-07-22T20:31:57;20.84;63.63
66337;SHT30;53139;45.576;5.304;2023-07-22T20:34:58;20.87;63.70
66337;SHT30;53139;45.576;5.304;2023-07-22T20:37:58;21.35;61.35
66337;SHT30;53139;45.576;5.304;2023-07-22T20:41:05;21.49;61.01
66337;SHT30;53139;45.576;5.304;2023-07-22T20:44:06;21.38;61.42
66337;SHT30;53139;45.576;5.304;2023-07-22T20:47:06;20.91;62.64
66337;SHT30;53139;45.576;5.304;2023-07-22T20:50:07;20.57;64.45
66337;SHT30;53139;45.576;5.304;2023-07-22T20:53:10;20.87;63.03
66337;SHT30;53139;45.576;5.304;2023-07-22T20:56:11;20.36;66.09
66337;SHT30;53139;45.576;5.304;2023-07-22T20:59:11;20.07;64.74
66337;SHT30;53139;45.576;5.304;2023-07-22T21:02:12;19.87;67.17
66337;SHT30;53139;45.576;5.304;2023-07-22T21:05:12;19.81;65.76
66337;SHT30;53139;45.576;5.304;2023-07-22T21:08:12;19.73;66.88
66337;SHT30;53139;45.576;5.304;2023-07-22T21:11:13;19.52;68.89
66337;SHT30;53139;45.576;5.304;2023-07-22T21:14:13;19.22;70.41
66337;SHT30;53139;45.576;5.304;2023-07-22T21:17:13;19.30;69.52
66337;SHT30;53139;45.576;5.304;2023-07-22T21:20:14;19.09;66.82
66337;SHT30;53139;45.576;5.304;2023-07-22T21:23:15;18.94;70.15
66337;SHT30;53139;45.576;5.304;2023-07-22T21:26:15;19.07;67.86
66337;SHT30;53139;45.576;5.304;2023-07-22T21:29:15;19.29;66.75
66337;SHT30;53139;45.576;5.304;2023-07-22T21:32:16;19.07;67.77
66337;SHT30;53139;45.576;5.304;2023-07-22T21:35:16;19.08;68.48
66337;SHT30;53139;45.576;5.304;2023-07-22T21:38:16;19.18;68.51
66337;SHT30;53139;45.576;5.304;2023-07-22T21:41:17;19.07;68.55
66337;SHT30;53139;45.576;5.304;2023-07-22T21:44:17;19.19;67.82
66337;SHT30;53139;45.576;5.304;2023-07-22T21:47:18;18.95;68.52
66337;SHT30;53139;45.576;5.304;2023-07-22T21:50:18;18.75;70.46
66337;SHT30;53139;45.576;5.304;2023-07-22T21:53:19;18.78;69.75
66337;SHT30;53139;45.576;5.304;2023-07-22T21:56:19;18.61;70.28
66337;SHT30;53139;45.576;5.304;2023-07-22T21:59:20;18.43;70.12
66337;SHT30;53139;45.576;5.304;2023-07-22T22:02:20;18.28;71.00
66337;SHT30;53139;45.576;5.304;2023-07-22T22:05:22;18.13;71.02
66337;SHT30;53139;45.576;5.304;2023-07-22T22:08:22;18.67;69.23
66337;SHT30;53139;45.576;5.304;2023-07-22T22:11:22;18.49;69.94
66337;SHT30;53139;45.576;5.304;2023-07-22T22:14:23;18.80;68.83
66337;SHT30;53139;45.576;5.304;2023-07-22T22:17:23;18.70;69.78